sensor_id;sensor_type;location;lat;lon;timestamp;P1;durP1;ratioP1;P2;durP2;ratioP2
13951;SDS011;39535;52.192;9.886;2023-04-25T00:01:20;7.97;;;5.00;;
13951;SDS011;39535;52.192;9.886;2023-04-25T00:03:49;9.50;;;4.33;;
13951;SDS011;39535;52.192;9.886;2023-04-25T00:06:15;7.83;;;4.70;;
13951;SDS011;39535;52.192;9.886;2023-04-25T00:08:42;6.73;;;4.77;;
13951;SDS011;39535;52.192;9.886;2023-04-25T00:11:09;7.30;;;4.60;;
13951;SDS011;39535;52.192;9.886;2023-04-25T00:13:35;7.83;;;4.57;;
13951;SDS011;39535;52.192;9.886;2023-04-25T00:16:02;6.47;;;4.13;;
13951;SDS011;39535;52.192;9.886;2023-04-25T00:18:29;7.50;;;4.97;;
13951;SDS011;39535;52.192;9.886;2023-04-25T00:20:59;9.20;;;5.03;;
13951;SDS011;39535;52.192;9.886;2023-04-25T00:23:25;8.23;;;4.87;;
13951;SDS011;39535;52.192;9.886;2023-04-25T00:25:52;12.67;;;5.00;;
13951;SDS011;39535;52.192;9.886;2023-04-25T00:28:18;5.40;;;4.90;;
13951;SDS011;39535;52.192;9.886;2023-04-25T00:30:44;7.50;;;5.50;;
13951;SDS011;39535;52.192;9.886;2023-04-25T00:33:11;7.90;;;4.97;;
13951;SDS011;39535;52.192;9.886;2023-04-25T00:35:38;7.47;;;5.23;;
13951;SDS011;39535;52.192;9.886;2023-04-25T00:38:05;6.83;;;4.80;;
13951;SDS011;39535;52.192;9.886;2023-04-25T00:40:32;6.90;;;5.17;;
13951;SDS011;39535;52.192;9.886;2023-04-25T00:42:58;6.17;;;5.53;;
13951;SDS011;39535;52.192;9.886;2023-04-25T00:45:27;6.03;;;5.30;;
13951;SDS011;39535;52.192;9.886;2023-04-25T00:47:55;6.97;;;5.30;;
13951;SDS011;39535;52.192;9.886;2023-04-25T00:50:22;10.73;;;6.57;;
13951;SDS011;39535;52.192;9.886;2023-04-25T00:52:48;7.17;;;5.87;;
13951;SDS011;39535;52.192;9.886;2023-04-25T00:55:16;9.37;;;6.77;;
13951;SDS011;39535;52.192;9.886;2023-04-25T00:57:43;7.53;;;6.53;;
13951;SDS011;39535;52.192;9.886;2023-04-25T01:00:10;9.67;;;6.33;;
13951;SDS011;39535;52.192;9.886;2023-04-25T01:02:38;9.60;;;6.90;;
13951;SDS011;39535;52.192;9.886;2023-04-25T01:05:06;9.53;;;6.87;;
13951;SDS011;39535;52.192;9.886;2023-04-25T01:07:32;7.67;;;6.50;;
13951;SDS011;39535;52.192;9.886;2023-04-25T01:10:00;11.93;;;6.67;;
13951;SDS011;39535;52.192;9.886;2023-04-25T01:12:29;7.93;;;6.40;;
13951;SDS011;39535;52.192;9.886;2023-04-25T01:14:55;9.40;;;6.60;;
13951;SDS011;39535;52.192;9.886;2023-04-25T01:17:22;9.73;;;6.53;;
13951;SDS011;39535;52.192;9.886;2023-04-25T01:19:49;9.63;;;7.30;;
13951;SDS011;39535;52.192;9.886;2023-04-25T01:22:17;10.53;;;6.67;;
13951;SDS011;39535;52.192;9.886;2023-04-25T01:24:44;7.40;;;6.43;;
13951;SDS011;39535;52.192;9.886;2023-04-25T01:27:11;8.20;;;6.20;;
13951;SDS011;39535;52.192;9.886;2023-04-25T01:29:38;7.47;;;6.47;;
13951;SDS011;39535;52.192;9.886;2023-04-25T01:32:05;7.27;;;6.50;;
13951;SDS011;39535;52.192;9.886;2023-04-25T01:34:32;11.50;;;7.33;;
13951;SDS011;39535;52.192;9.886;2023-04-25T01:36:59;12.80;;;6.40;;
13951;SDS011;39535;52.192;9.886;2023-04-25T01:39:27;10.37;;;7.50;;
13951;SDS011;39535;52.192;9.886;2023-04-25T01:41:54;7.90;;;7.17;;
13951;SDS011;39535;52.192;9.886;2023-04-25T01:44:21;12.93;;;7.40;;
13951;SDS011;39535;52.192;9.886;2023-04-25T01:46:47;16.20;;;8.13;;
13951;SDS011;39535;52.192;9.886;2023-04-25T01:49:14;10.70;;;7.80;;
13951;SDS011;39535;52.192;9.886;2023-04-25T01:51:40;10.80;;;7.80;;
13951;SDS011;39535;52.192;9.886;2023-04-25T01:54:07;12.27;;;8.13;;
13951;SDS011;39535;52.192;9.886;2023-04-25T01:56:37;10.63;;;7.53;;
13951;SDS011;39535;52.192;9.886;2023-04-25T01:59:04;11.53;;;7.77;;
13951;SDS011;39535;52.192;9.886;2023-04-25T02:01:31;9.23;;;7.33;;
13951;SDS011;39535;52.192;9.886;2023-04-25T02:03:58;12.20;;;7.47;;
13951;SDS011;39535;52.192;9.886;2023-04-25T02:06:24;10.90;;;8.53;;
13951;SDS011;39535;52.192;9.886;2023-04-25T02:08:50;11.13;;;8.80;;
13951;SDS011;39535;52.192;9.886;2023-04-25T02:11:17;11.37;;;7.70;;
13951;SDS011;39535;52.192;9.886;2023-04-25T02:13:45;10.30;;;8.83;;
13951;SDS011;39535;52.192;9.886;2023-04-25T02:16:11;12.30;;;9.53;;
13951;SDS011;39535;52.192;9.886;2023-04-25T02:18:38;12.17;;;8.53;;
13951;SDS011;39535;52.192;9.886;2023-04-25T02:21:04;13.50;;;9.10;;
13951;SDS011;39535;52.192;9.886;2023-04-25T02:23:30;10.80;;;8.23;;
13951;SDS011;39535;52.192;9.886;2023-04-25T02:25:57;10.73;;;8.50;;
13951;SDS011;39535;52.192;9.886;2023-04-25T02:28:23;13.83;;;8.90;;
13951;SDS011;39535;52.192;9.886;2023-04-25T02:30:52;15.60;;;8.50;;
13951;SDS011;39535;52.192;9.886;2023-04-25T02:33:18;10.77;;;9.13;;
13951;SDS011;39535;52.192;9.886;2023-04-25T02:35:46;14.43;;;9.33;;
13951;SDS011;39535;52.192;9.886;2023-04-25T02:38:12;14.17;;;9.20;;
13951;SDS011;39535;52.192;9.886;2023-04-25T02:40:38;13.50;;;9.40;;
13951;SDS011;39535;52.192;9.886;2023-04-25T02:43:05;10.57;;;8.63;;
13951;SDS011;39535;52.192;9.886;2023-04-25T02:45:32;12.40;;;8.20;;
13951;SDS011;39535;52.192;9.886;2023-04-25T02:47:59;11.10;;;7.90;;
13951;SDS011;39535;52.192;9.886;2023-04-25T02:50:26;12.47;;;9.30;;
13951;SDS011;39535;52.192;9.886;2023-04-25T02:52:52;9.67;;;8.10;;
13951;SDS011;39535;52.192;9.886;2023-04-25T02:55:19;9.10;;;8.20;;
13951;SDS011;39535;52.192;9.886;2023-04-25T02:57:45;9.53;;;6.67;;
13951;SDS011;39535;52.192;9.886;2023-04-25T03:00:12;8.90;;;8.03;;
13951;SDS011;39535;52.192;9.886;2023-04-25T03:02:40;8.30;;;7.50;;
13951;SDS011;39535;52.192;9.886;2023-04-25T03:05:08;7.97;;;7.17;;
13951;SDS011;39535;52.192;9.886;2023-04-25T03:07:34;9.60;;;7.13;;
13951;SDS011;39535;52.192;9.886;2023-04-25T03:10:00;10.07;;;6.50;;
13951;SDS011;39535;52.192;9.886;2023-04-25T03:12:27;9.53;;;6.57;;
13951;SDS011;39535;52.192;9.886;2023-04-25T03:14:53;11.07;;;6.50;;
13951;SDS011;39535;52.192;9.886;2023-04-25T03:17:20;10.60;;;7.17;;
13951;SDS011;39535;52.192;9.886;2023-04-25T03:19:46;14.13;;;5.47;;
13951;SDS011;39535;52.192;9.886;2023-04-25T03:22:14;9.93;;;5.70;;
13951;SDS011;39535;52.192;9.886;2023-04-25T03:24:40;14.40;;;5.47;;
13951;SDS011;39535;52.192;9.886;2023-04-25T03:27:07;14.93;;;5.53;;
13951;SDS011;39535;52.192;9.886;2023-04-25T03:29:33;13.53;;;5.23;;
13951;SDS011;39535;52.192;9.886;2023-04-25T03:32:00;15.47;;;5.40;;
13951;SDS011;39535;52.192;9.886;2023-04-25T03:34:26;10.00;;;5.10;;
13951;SDS011;39535;52.192;9.886;2023-04-25T03:36:53;18.13;;;5.90;;
13951;SDS011;39535;52.192;9.886;2023-04-25T03:39:21;13.07;;;4.80;;
13951;SDS011;39535;52.192;9.886;2023-04-25T03:41:47;10.40;;;5.90;;
13951;SDS011;39535;52.192;9.886;2023-04-25T03:44:14;15.27;;;6.00;;
13951;SDS011;39535;52.192;9.886;2023-04-25T03:46:40;12.70;;;5.13;;
13951;SDS011;39535;52.192;9.886;2023-04-25T03:49:06;13.73;;;5.80;;
13951;SDS011;39535;52.192;9.886;2023-04-25T03:51:33;15.43;;;6.23;;
13951;SDS011;39535;52.192;9.886;2023-04-25T03:56:30;18.27;;;5.97;;
13951;SDS011;39535;52.192;9.886;2023-04-25T03:58:56;18.83;;;5.27;;
13951;SDS011;39535;52.192;9.886;2023-04-25T04:01:23;16.07;;;6.87;;
13951;SDS011;39535;52.192;9.886;2023-04-25T04:03:50;20.50;;;5.97;;
13951;SDS011;39535;52.192;9.886;2023-04-25T04:06:16;11.77;;;5.40;;
13951;SDS011;39535;52.192;9.886;2023-04-25T04:08:43;11.30;;;5.50;;
13951;SDS011;39535;52.192;9.886;2023-04-25T04:11:09;13.93;;;5.53;;
13951;SDS011;39535;52.192;9.886;2023-04-25T04:13:37;13.27;;;6.57;;
13951;SDS011;39535;52.192;9.886;2023-04-25T04:16:04;11.60;;;5.30;;
13951;SDS011;39535;52.192;9.886;2023-04-25T04:18:31;13.23;;;5.80;;
13951;SDS011;39535;52.192;9.886;2023-04-25T04:20:58;14.97;;;5.33;;
13951;SDS011;39535;52.192;9.886;2023-04-25T04:23:24;19.50;;;5.40;;
13951;SDS011;39535;52.192;9.886;2023-04-25T04:25:52;24.67;;;7.50;;
13951;SDS011;39535;52.192;9.886;2023-04-25T04:28:19;10.30;;;5.40;;
13951;SDS011;39535;52.192;9.886;2023-04-25T04:30:46;11.10;;;5.07;;
13951;SDS011;39535;52.192;9.886;2023-04-25T04:33:16;10.67;;;5.63;;
13951;SDS011;39535;52.192;9.886;2023-04-25T04:35:44;13.83;;;5.27;;
13951;SDS011;39535;52.192;9.886;2023-04-25T04:38:13;11.13;;;5.00;;
13951;SDS011;39535;52.192;9.886;2023-04-25T04:40:40;17.13;;;4.97;;
13951;SDS011;39535;52.192;9.886;2023-04-25T04:43:08;19.27;;;5.07;;
13951;SDS011;39535;52.192;9.886;2023-04-25T04:45:35;16.43;;;5.00;;
13951;SDS011;39535;52.192;9.886;2023-04-25T04:48:04;24.77;;;6.10;;
13951;SDS011;39535;52.192;9.886;2023-04-25T04:50:31;18.27;;;6.23;;
13951;SDS011;39535;52.192;9.886;2023-04-25T04:52:58;12.10;;;5.77;;
13951;SDS011;39535;52.192;9.886;2023-04-25T04:55:25;14.43;;;5.27;;
13951;SDS011;39535;52.192;9.886;2023-04-25T04:57:51;16.23;;;5.30;;
13951;SDS011;39535;52.192;9.886;2023-04-25T05:00:18;12.57;;;4.90;;
13951;SDS011;39535;52.192;9.886;2023-04-25T05:02:45;11.03;;;5.27;;
13951;SDS011;39535;52.192;9.886;2023-04-25T05:05:13;14.70;;;5.40;;
13951;SDS011;39535;52.192;9.886;2023-04-25T05:07:39;9.63;;;4.30;;
13951;SDS011;39535;52.192;9.886;2023-04-25T05:10:06;15.20;;;5.03;;
13951;SDS011;39535;52.192;9.886;2023-04-25T05:12:33;10.87;;;5.00;;
13951;SDS011;39535;52.192;9.886;2023-04-25T05:15:00;15.53;;;4.87;;
13951;SDS011;39535;52.192;9.886;2023-04-25T05:17:26;15.37;;;4.57;;
13951;SDS011;39535;52.192;9.886;2023-04-25T05:19:53;15.07;;;4.47;;
13951;SDS011;39535;52.192;9.886;2023-04-25T05:22:20;16.70;;;5.03;;
13951;SDS011;39535;52.192;9.886;2023-04-25T05:24:47;13.47;;;4.53;;
13951;SDS011;39535;52.192;9.886;2023-04-25T05:27:16;16.30;;;5.30;;
13951;SDS011;39535;52.192;9.886;2023-04-25T05:29:43;23.03;;;5.43;;
13951;SDS011;39535;52.192;9.886;2023-04-25T05:32:09;12.00;;;4.83;;
13951;SDS011;39535;52.192;9.886;2023-04-25T05:34:36;11.47;;;5.00;;
13951;SDS011;39535;52.192;9.886;2023-04-25T05:37:02;22.17;;;4.77;;
13951;SDS011;39535;52.192;9.886;2023-04-25T05:39:30;12.87;;;4.30;;
13951;SDS011;39535;52.192;9.886;2023-04-25T05:41:56;12.90;;;4.70;;
13951;SDS011;39535;52.192;9.886;2023-04-25T05:44:23;18.90;;;4.90;;
13951;SDS011;39535;52.192;9.886;2023-04-25T05:46:50;19.70;;;5.33;;
13951;SDS011;39535;52.192;9.886;2023-04-25T05:49:16;12.50;;;4.83;;
13951;SDS011;39535;52.192;9.886;2023-04-25T05:51:42;20.33;;;4.83;;
13951;SDS011;39535;52.192;9.886;2023-04-25T05:54:09;14.73;;;4.40;;
13951;SDS011;39535;52.192;9.886;2023-04-25T05:56:37;14.10;;;4.93;;
13951;SDS011;39535;52.192;9.886;2023-04-25T05:59:03;12.37;;;3.60;;
13951;SDS011;39535;52.192;9.886;2023-04-25T06:01:29;16.80;;;4.03;;
13951;SDS011;39535;52.192;9.886;2023-04-25T06:03:56;23.57;;;4.57;;
13951;SDS011;39535;52.192;9.886;2023-04-25T06:06:22;12.87;;;3.43;;
13951;SDS011;39535;52.192;9.886;2023-04-25T06:08:49;10.70;;;3.23;;
13951;SDS011;39535;52.192;9.886;2023-04-25T06:11:15;16.60;;;3.93;;
13951;SDS011;39535;52.192;9.886;2023-04-25T06:13:43;16.20;;;3.53;;
13951;SDS011;39535;52.192;9.886;2023-04-25T06:16:09;12.33;;;3.77;;
13951;SDS011;39535;52.192;9.886;2023-04-25T06:18:36;9.20;;;3.50;;
13951;SDS011;39535;52.192;9.886;2023-04-25T06:21:02;15.70;;;3.67;;
13951;SDS011;39535;52.192;9.886;2023-04-25T06:23:29;12.70;;;3.40;;
13951;SDS011;39535;52.192;9.886;2023-04-25T06:25:55;16.50;;;3.97;;
13951;SDS011;39535;52.192;9.886;2023-04-25T06:28:22;8.77;;;3.63;;
13951;SDS011;39535;52.192;9.886;2023-04-25T06:30:50;15.97;;;3.47;;
13951;SDS011;39535;52.192;9.886;2023-04-25T06:33:17;13.10;;;3.70;;
13951;SDS011;39535;52.192;9.886;2023-04-25T06:35:43;9.53;;;3.47;;
13951;SDS011;39535;52.192;9.886;2023-04-25T06:38:09;12.13;;;4.50;;
13951;SDS011;39535;52.192;9.886;2023-04-25T06:40:36;11.03;;;3.80;;
13951;SDS011;39535;52.192;9.886;2023-04-25T06:43:02;13.40;;;3.30;;
13951;SDS011;39535;52.192;9.886;2023-04-25T06:45:29;8.03;;;3.57;;
13951;SDS011;39535;52.192;9.886;2023-04-25T06:47:56;10.30;;;3.50;;
13951;SDS011;39535;52.192;9.886;2023-04-25T06:50:23;10.17;;;3.67;;
13951;SDS011;39535;52.192;9.886;2023-04-25T06:52:49;15.37;;;3.80;;
13951;SDS011;39535;52.192;9.886;2023-04-25T06:55:16;11.67;;;2.97;;
13951;SDS011;39535;52.192;9.886;2023-04-25T06:57:42;11.17;;;3.40;;
13951;SDS011;39535;52.192;9.886;2023-04-25T07:00:09;9.87;;;4.20;;
13951;SDS011;39535;52.192;9.886;2023-04-25T07:02:36;9.93;;;3.00;;
13951;SDS011;39535;52.192;9.886;2023-04-25T07:05:04;8.03;;;3.13;;
13951;SDS011;39535;52.192;9.886;2023-04-25T07:07:31;8.07;;;2.73;;
13951;SDS011;39535;52.192;9.886;2023-04-25T07:09:57;10.70;;;3.33;;
13951;SDS011;39535;52.192;9.886;2023-04-25T07:12:24;11.43;;;4.37;;
13951;SDS011;39535;52.192;9.886;2023-04-25T07:14:50;12.53;;;4.00;;
13951;SDS011;39535;52.192;9.886;2023-04-25T07:17:17;9.37;;;2.70;;
13951;SDS011;39535;52.192;9.886;2023-04-25T07:19:43;13.33;;;2.27;;
13951;SDS011;39535;52.192;9.886;2023-04-25T07:22:11;11.70;;;2.90;;
13951;SDS011;39535;52.192;9.886;2023-04-25T07:24:37;9.40;;;2.73;;
13951;SDS011;39535;52.192;9.886;2023-04-25T07:27:04;15.87;;;3.20;;
13951;SDS011;39535;52.192;9.886;2023-04-25T07:29:31;11.37;;;3.10;;
13951;SDS011;39535;52.192;9.886;2023-04-25T07:31:57;7.53;;;3.03;;
13951;SDS011;39535;52.192;9.886;2023-04-25T07:34:24;6.47;;;2.83;;
13951;SDS011;39535;52.192;9.886;2023-04-25T07:36:50;7.47;;;2.00;;
13951;SDS011;39535;52.192;9.886;2023-04-25T07:39:18;9.30;;;3.10;;
13951;SDS011;39535;52.192;9.886;2023-04-25T07:41:45;7.20;;;2.57;;
13951;SDS011;39535;52.192;9.886;2023-04-25T07:44:11;12.00;;;2.50;;
13951;SDS011;39535;52.192;9.886;2023-04-25T07:46:38;4.20;;;2.40;;
13951;SDS011;39535;52.192;9.886;2023-04-25T07:49:04;6.57;;;2.60;;
13951;SDS011;39535;52.192;9.886;2023-04-25T07:51:30;8.53;;;2.70;;
13951;SDS011;39535;52.192;9.886;2023-04-25T07:53:57;6.63;;;2.40;;
13951;SDS011;39535;52.192;9.886;2023-04-25T07:56:25;12.67;;;3.20;;
13951;SDS011;39535;52.192;9.886;2023-04-25T07:58:52;5.97;;;2.30;;
13951;SDS011;39535;52.192;9.886;2023-04-25T08:01:18;8.97;;;3.00;;
13951;SDS011;39535;52.192;9.886;2023-04-25T08:03:46;5.63;;;2.73;;
13951;SDS011;39535;52.192;9.886;2023-04-25T08:06:12;7.07;;;3.53;;
13951;SDS011;39535;52.192;9.886;2023-04-25T08:08:39;10.33;;;2.87;;
13951;SDS011;39535;52.192;9.886;2023-04-25T08:11:05;8.07;;;2.27;;
13951;SDS011;39535;52.192;9.886;2023-04-25T08:13:33;8.57;;;2.40;;
13951;SDS011;39535;52.192;9.886;2023-04-25T08:16:00;7.83;;;2.77;;
13951;SDS011;39535;52.192;9.886;2023-04-25T08:18:26;6.73;;;2.40;;
13951;SDS011;39535;52.192;9.886;2023-04-25T08:20:53;7.60;;;2.20;;
13951;SDS011;39535;52.192;9.886;2023-04-25T08:23:19;11.53;;;2.77;;
13951;SDS011;39535;52.192;9.886;2023-04-25T08:25:45;8.00;;;2.70;;
13951;SDS011;39535;52.192;9.886;2023-04-25T08:28:12;7.73;;;2.53;;
13951;SDS011;39535;52.192;9.886;2023-04-25T08:30:40;6.13;;;1.77;;
13951;SDS011;39535;52.192;9.886;2023-04-25T08:33:06;7.57;;;2.40;;
13951;SDS011;39535;52.192;9.886;2023-04-25T08:35:33;7.50;;;2.60;;
13951;SDS011;39535;52.192;9.886;2023-04-25T08:37:59;4.80;;;1.90;;
13951;SDS011;39535;52.192;9.886;2023-04-25T08:40:26;6.97;;;2.00;;
13951;SDS011;39535;52.192;9.886;2023-04-25T08:42:55;7.50;;;2.40;;
13951;SDS011;39535;52.192;9.886;2023-04-25T08:45:22;5.93;;;1.77;;
13951;SDS011;39535;52.192;9.886;2023-04-25T08:47:51;4.60;;;1.97;;
13951;SDS011;39535;52.192;9.886;2023-04-25T08:50:18;7.33;;;2.10;;
13951;SDS011;39535;52.192;9.886;2023-04-25T08:52:47;3.97;;;1.73;;
13951;SDS011;39535;52.192;9.886;2023-04-25T08:55:17;7.50;;;1.97;;
13951;SDS011;39535;52.192;9.886;2023-04-25T08:57:44;5.37;;;1.80;;
13951;SDS011;39535;52.192;9.886;2023-04-25T09:00:12;4.40;;;1.73;;
13951;SDS011;39535;52.192;9.886;2023-04-25T09:02:39;4.87;;;1.70;;
13951;SDS011;39535;52.192;9.886;2023-04-25T09:05:08;4.33;;;1.97;;
13951;SDS011;39535;52.192;9.886;2023-04-25T09:07:35;5.87;;;1.70;;
13951;SDS011;39535;52.192;9.886;2023-04-25T09:10:02;5.23;;;1.77;;
13951;SDS011;39535;52.192;9.886;2023-04-25T09:12:29;4.63;;;1.50;;
13951;SDS011;39535;52.192;9.886;2023-04-25T09:15:02;2.80;;;1.63;;
13951;SDS011;39535;52.192;9.886;2023-04-25T09:17:30;3.97;;;1.67;;
13951;SDS011;39535;52.192;9.886;2023-04-25T09:20:05;5.60;;;2.10;;
13951;SDS011;39535;52.192;9.886;2023-04-25T09:22:34;9.03;;;2.00;;
13951;SDS011;39535;52.192;9.886;2023-04-25T09:25:02;5.03;;;1.90;;
13951;SDS011;39535;52.192;9.886;2023-04-25T09:27:29;9.27;;;2.60;;
13951;SDS011;39535;52.192;9.886;2023-04-25T09:29:56;3.33;;;1.60;;
13951;SDS011;39535;52.192;9.886;2023-04-25T09:32:24;8.60;;;2.30;;
13951;SDS011;39535;52.192;9.886;2023-04-25T09:34:51;8.33;;;2.17;;
13951;SDS011;39535;52.192;9.886;2023-04-25T09:37:19;4.10;;;1.83;;
13951;SDS011;39535;52.192;9.886;2023-04-25T09:39:48;4.80;;;1.80;;
13951;SDS011;39535;52.192;9.886;2023-04-25T09:42:15;5.93;;;1.90;;
13951;SDS011;39535;52.192;9.886;2023-04-25T09:44:43;3.83;;;1.53;;
13951;SDS011;39535;52.192;9.886;2023-04-25T09:47:10;5.47;;;1.67;;
13951;SDS011;39535;52.192;9.886;2023-04-25T09:49:39;5.20;;;2.37;;
13951;SDS011;39535;52.192;9.886;2023-04-25T09:52:07;6.10;;;1.80;;
13951;SDS011;39535;52.192;9.886;2023-04-25T09:54:34;3.47;;;1.50;;
13951;SDS011;39535;52.192;9.886;2023-04-25T09:57:04;6.90;;;2.50;;
13951;SDS011;39535;52.192;9.886;2023-04-25T09:59:35;4.33;;;1.33;;
13951;SDS011;39535;52.192;9.886;2023-04-25T10:02:05;5.33;;;2.27;;
13951;SDS011;39535;52.192;9.886;2023-04-25T10:04:34;1.87;;;1.10;;
13951;SDS011;39535;52.192;9.886;2023-04-25T10:07:01;4.77;;;2.03;;
13951;SDS011;39535;52.192;9.886;2023-04-25T10:09:31;4.33;;;1.30;;
13951;SDS011;39535;52.192;9.886;2023-04-25T10:11:59;2.57;;;1.50;;
13951;SDS011;39535;52.192;9.886;2023-04-25T10:14:27;4.63;;;1.20;;
13951;SDS011;39535;52.192;9.886;2023-04-25T10:16:56;3.13;;;1.43;;
13951;SDS011;39535;52.192;9.886;2023-04-25T10:19:23;1.83;;;1.40;;
13951;SDS011;39535;52.192;9.886;2023-04-25T10:21:51;4.00;;;1.50;;
13951;SDS011;39535;52.192;9.886;2023-04-25T10:24:19;5.20;;;1.70;;
13951;SDS011;39535;52.192;9.886;2023-04-25T10:26:46;4.17;;;1.53;;
13951;SDS011;39535;52.192;9.886;2023-04-25T10:29:15;4.53;;;1.60;;
13951;SDS011;39535;52.192;9.886;2023-04-25T10:31:49;2.43;;;1.33;;
13951;SDS011;39535;52.192;9.886;2023-04-25T10:34:15;2.37;;;1.60;;
13951;SDS011;39535;52.192;9.886;2023-04-25T10:36:42;6.83;;;3.00;;
13951;SDS011;39535;52.192;9.886;2023-04-25T10:39:09;3.87;;;1.53;;
13951;SDS011;39535;52.192;9.886;2023-04-25T10:41:47;4.63;;;1.13;;
13951;SDS011;39535;52.192;9.886;2023-04-25T10:44:19;5.83;;;1.83;;
13951;SDS011;39535;52.192;9.886;2023-04-25T10:46:46;7.50;;;1.80;;
13951;SDS011;39535;52.192;9.886;2023-04-25T10:49:29;4.07;;;1.57;;
13951;SDS011;39535;52.192;9.886;2023-04-25T10:52:16;6.03;;;1.93;;
13951;SDS011;39535;52.192;9.886;2023-04-25T10:54:47;3.50;;;1.70;;
13951;SDS011;39535;52.192;9.886;2023-04-25T10:57:27;3.30;;;1.43;;
13951;SDS011;39535;52.192;9.886;2023-04-25T11:00:14;7.77;;;2.07;;
13951;SDS011;39535;52.192;9.886;2023-04-25T11:02:43;4.30;;;1.60;;
13951;SDS011;39535;52.192;9.886;2023-04-25T11:05:18;5.53;;;1.77;;
13951;SDS011;39535;52.192;9.886;2023-04-25T11:07:49;5.90;;;1.70;;
13951;SDS011;39535;52.192;9.886;2023-04-25T11:10:17;3.27;;;1.80;;
13951;SDS011;39535;52.192;9.886;2023-04-25T11:12:45;7.57;;;2.20;;
13951;SDS011;39535;52.192;9.886;2023-04-25T11:15:12;4.63;;;2.00;;
13951;SDS011;39535;52.192;9.886;2023-04-25T11:17:38;5.00;;;1.87;;
13951;SDS011;39535;52.192;9.886;2023-04-25T11:20:06;2.87;;;1.63;;
13951;SDS011;39535;52.192;9.886;2023-04-25T11:22:37;5.27;;;1.60;;
13951;SDS011;39535;52.192;9.886;2023-04-25T11:25:05;4.10;;;2.00;;
13951;SDS011;39535;52.192;9.886;2023-04-25T11:27:33;6.80;;;1.90;;
13951;SDS011;39535;52.192;9.886;2023-04-25T11:30:09;7.77;;;2.00;;
13951;SDS011;39535;52.192;9.886;2023-04-25T11:32:36;3.90;;;1.57;;
13951;SDS011;39535;52.192;9.886;2023-04-25T11:35:02;7.30;;;1.53;;
13951;SDS011;39535;52.192;9.886;2023-04-25T11:37:31;4.43;;;1.50;;
13951;SDS011;39535;52.192;9.886;2023-04-25T11:39:59;3.77;;;2.03;;
13951;SDS011;39535;52.192;9.886;2023-04-25T11:42:25;4.57;;;1.60;;
13951;SDS011;39535;52.192;9.886;2023-04-25T11:44:52;3.47;;;1.63;;
13951;SDS011;39535;52.192;9.886;2023-04-25T11:47:19;5.13;;;1.83;;
13951;SDS011;39535;52.192;9.886;2023-04-25T11:49:45;4.37;;;1.80;;
13951;SDS011;39535;52.192;9.886;2023-04-25T11:52:11;6.20;;;1.67;;
13951;SDS011;39535;52.192;9.886;2023-04-25T11:54:38;4.83;;;1.67;;
13951;SDS011;39535;52.192;9.886;2023-04-25T11:57:06;3.97;;;1.80;;
13951;SDS011;39535;52.192;9.886;2023-04-25T11:59:32;5.97;;;1.97;;
13951;SDS011;39535;52.192;9.886;2023-04-25T12:01:59;3.30;;;1.57;;
13951;SDS011;39535;52.192;9.886;2023-04-25T12:04:29;2.80;;;1.40;;
13951;SDS011;39535;52.192;9.886;2023-04-25T12:06:56;2.90;;;1.50;;
13951;SDS011;39535;52.192;9.886;2023-04-25T12:09:27;4.57;;;1.47;;
13951;SDS011;39535;52.192;9.886;2023-04-25T12:11:55;3.47;;;1.80;;
13951;SDS011;39535;52.192;9.886;2023-04-25T12:14:25;4.23;;;1.50;;
13951;SDS011;39535;52.192;9.886;2023-04-25T12:16:54;4.37;;;1.70;;
13951;SDS011;39535;52.192;9.886;2023-04-25T12:19:22;7.63;;;2.13;;
13951;SDS011;39535;52.192;9.886;2023-04-25T12:21:49;5.53;;;2.10;;
13951;SDS011;39535;52.192;9.886;2023-04-25T12:24:17;3.17;;;1.57;;
13951;SDS011;39535;52.192;9.886;2023-04-25T12:26:49;5.00;;;1.37;;
13951;SDS011;39535;52.192;9.886;2023-04-25T12:29:20;3.53;;;1.67;;
13951;SDS011;39535;52.192;9.886;2023-04-25T12:31:50;2.50;;;1.50;;
13951;SDS011;39535;52.192;9.886;2023-04-25T12:34:18;4.57;;;1.90;;
13951;SDS011;39535;52.192;9.886;2023-04-25T12:36:44;4.77;;;1.77;;
13951;SDS011;39535;52.192;9.886;2023-04-25T12:39:14;3.73;;;2.03;;
13951;SDS011;39535;52.192;9.886;2023-04-25T12:41:41;2.33;;;1.40;;
13951;SDS011;39535;52.192;9.886;2023-04-25T12:44:08;3.57;;;1.50;;
13951;SDS011;39535;52.192;9.886;2023-04-25T12:46:35;3.33;;;1.37;;
13951;SDS011;39535;52.192;9.886;2023-04-25T12:49:03;2.30;;;1.20;;
13951;SDS011;39535;52.192;9.886;2023-04-25T12:51:29;3.97;;;1.23;;
13951;SDS011;39535;52.192;9.886;2023-04-25T12:53:57;1.67;;;0.90;;
13951;SDS011;39535;52.192;9.886;2023-04-25T12:56:24;3.37;;;1.30;;
13951;SDS011;39535;52.192;9.886;2023-04-25T12:58:51;2.23;;;0.93;;
13951;SDS011;39535;52.192;9.886;2023-04-25T13:01:18;3.53;;;0.90;;
13951;SDS011;39535;52.192;9.886;2023-04-25T13:03:45;2.00;;;0.70;;
13951;SDS011;39535;52.192;9.886;2023-04-25T13:06:14;2.97;;;0.90;;
13951;SDS011;39535;52.192;9.886;2023-04-25T13:08:41;2.47;;;1.10;;
13951;SDS011;39535;52.192;9.886;2023-04-25T13:11:07;1.93;;;1.00;;
13951;SDS011;39535;52.192;9.886;2023-04-25T13:13:34;2.70;;;1.00;;
13951;SDS011;39535;52.192;9.886;2023-04-25T13:16:01;2.10;;;1.47;;
13951;SDS011;39535;52.192;9.886;2023-04-25T13:18:28;1.63;;;1.00;;
13951;SDS011;39535;52.192;9.886;2023-04-25T13:20:54;4.07;;;1.10;;
13951;SDS011;39535;52.192;9.886;2023-04-25T13:23:24;1.80;;;0.90;;
13951;SDS011;39535;52.192;9.886;2023-04-25T13:25:52;2.97;;;0.90;;
13951;SDS011;39535;52.192;9.886;2023-04-25T13:28:20;2.20;;;0.90;;
13951;SDS011;39535;52.192;9.886;2023-04-25T13:30:46;3.87;;;1.87;;
13951;SDS011;39535;52.192;9.886;2023-04-25T13:33:13;2.37;;;0.90;;
13951;SDS011;39535;52.192;9.886;2023-04-25T13:35:40;2.30;;;1.23;;
13951;SDS011;39535;52.192;9.886;2023-04-25T13:38:07;2.57;;;1.03;;
13951;SDS011;39535;52.192;9.886;2023-04-25T13:40:35;1.23;;;0.87;;
13951;SDS011;39535;52.192;9.886;2023-04-25T13:43:01;2.30;;;1.57;;
13951;SDS011;39535;52.192;9.886;2023-04-25T13:45:28;2.73;;;1.10;;
13951;SDS011;39535;52.192;9.886;2023-04-25T13:47:54;2.10;;;0.90;;
13951;SDS011;39535;52.192;9.886;2023-04-25T13:50:20;3.67;;;1.20;;
13951;SDS011;39535;52.192;9.886;2023-04-25T13:52:47;2.20;;;0.90;;
13951;SDS011;39535;52.192;9.886;2023-04-25T13:55:13;1.60;;;0.90;;
13951;SDS011;39535;52.192;9.886;2023-04-25T13:57:41;1.00;;;0.90;;
13951;SDS011;39535;52.192;9.886;2023-04-25T14:00:08;2.20;;;1.00;;
13951;SDS011;39535;52.192;9.886;2023-04-25T14:02:35;3.43;;;1.13;;
13951;SDS011;39535;52.192;9.886;2023-04-25T14:05:02;2.10;;;1.10;;
13951;SDS011;39535;52.192;9.886;2023-04-25T14:07:29;1.10;;;1.00;;
13951;SDS011;39535;52.192;9.886;2023-04-25T14:09:56;2.57;;;1.33;;
13951;SDS011;39535;52.192;9.886;2023-04-25T14:12:23;2.87;;;1.60;;
13951;SDS011;39535;52.192;9.886;2023-04-25T14:14:51;1.67;;;0.93;;
13951;SDS011;39535;52.192;9.886;2023-04-25T14:17:17;1.93;;;1.27;;
13951;SDS011;39535;52.192;9.886;2023-04-25T14:19:44;2.07;;;1.07;;
13951;SDS011;39535;52.192;9.886;2023-04-25T14:22:13;2.13;;;1.40;;
13951;SDS011;39535;52.192;9.886;2023-04-25T14:24:39;3.43;;;1.07;;
13951;SDS011;39535;52.192;9.886;2023-04-25T14:27:06;3.23;;;1.40;;
13951;SDS011;39535;52.192;9.886;2023-04-25T14:29:33;2.43;;;1.23;;
13951;SDS011;39535;52.192;9.886;2023-04-25T14:32:02;2.27;;;1.23;;
13951;SDS011;39535;52.192;9.886;2023-04-25T14:34:30;3.70;;;1.70;;
13951;SDS011;39535;52.192;9.886;2023-04-25T14:36:56;1.70;;;1.13;;
13951;SDS011;39535;52.192;9.886;2023-04-25T14:39:23;2.00;;;1.17;;
13951;SDS011;39535;52.192;9.886;2023-04-25T14:41:49;2.43;;;1.37;;
13951;SDS011;39535;52.192;9.886;2023-04-25T14:44:15;1.23;;;1.00;;
13951;SDS011;39535;52.192;9.886;2023-04-25T14:46:42;1.90;;;1.07;;